Time;durP1;ratioP1;P1;durP2;ratioP2;P2;SDS_P1;SDS_P2;PMS_P1;PMS_P2;Temp;Humidity;BMP_temperature;BMP_pressure;BME280_temperature;BME280_humidity;BME280_pressure;Samples;Min_cycle;Max_cycle;Signal;HPM_P1;HPM_P2
2023/08/20 00:00:20;;;;;;;17.45;11.52;;;19.40;99.90;;;;;;4962312;28;93850;-76
2023/08/20 00:02:50;;;;;;;20.80;11.68;;;19.40;99.90;;;;;;4965103;28;92558;-75
2023/08/20 00:05:16;;;;;;;16.13;11.27;;;19.40;99.90;;;;;;4963022;28;92373;-76
2023/08/20 00:07:42;;;;;;;25.42;12.20;;;19.40;99.90;;;;;;4943609;28;97088;-75
2023/08/20 00:10:08;;;;;;;17.80;11.90;;;19.40;99.90;;;;;;4962957;28;96609;-76
2023/08/20 00:12:33;;;;;;;22.13;12.15;;;19.40;99.90;;;;;;4964853;28;92461;-75
2023/08/20 00:15:07;;;;;;;18.38;11.15;;;19.40;99.90;;;;;;4964443;28;92700;-76
2023/08/20 00:17:35;;;;;;;16.77;11.38;;;19.40;99.90;;;;;;4963456;28;97882;-76
2023/08/20 00:20:03;;;;;;;19.50;11.85;;;19.50;99.90;;;;;;4963203;28;93482;-76
2023/08/20 00:22:30;;;;;;;19.88;12.05;;;19.50;99.90;;;;;;4945580;28;92791;-76
2023/08/20 00:24:56;;;;;;;14.50;10.77;;;19.50;99.90;;;;;;4953418;28;91905;-76
2023/08/20 00:27:21;;;;;;;18.08;11.57;;;19.50;99.90;;;;;;4944949;28;95282;-75
2023/08/20 00:29:47;;;;;;;17.20;10.68;;;19.50;99.90;;;;;;4964845;28;93386;-76
2023/08/20 00:32:14;;;;;;;20.67;11.05;;;19.40;99.90;;;;;;4966599;28;93496;-76
2023/08/20 00:34:40;;;;;;;16.38;10.73;;;19.40;99.90;;;;;;4966264;28;92903;-75
2023/08/20 00:37:06;;;;;;;16.98;10.52;;;19.40;99.90;;;;;;4965297;28;93454;-76
2023/08/20 00:39:31;;;;;;;18.52;11.18;;;19.40;99.90;;;;;;4965769;28;93405;-75
2023/08/20 00:41:57;;;;;;;21.17;9.73;;;19.40;99.90;;;;;;4966636;28;92509;-76
2023/08/20 00:44:23;;;;;;;11.65;9.45;;;19.40;99.90;;;;;;4965528;28;92535;-76
2023/08/20 00:46:50;;;;;;;17.42;9.45;;;19.40;99.90;;;;;;4964577;28;93376;-75
2023/08/20 00:49:17;;;;;;;14.15;9.57;;;19.40;99.90;;;;;;4965122;28;93992;-76
2023/08/20 00:51:43;;;;;;;25.08;11.07;;;19.40;99.90;;;;;;4965253;28;92801;-76
2023/08/20 00:54:09;;;;;;;14.95;8.65;;;19.40;99.90;;;;;;4963490;28;92363;-76
2023/08/20 00:56:36;;;;;;;15.00;9.27;;;19.40;99.90;;;;;;4965112;28;95463;-76
2023/08/20 00:59:01;;;;;;;19.40;8.93;;;19.30;99.90;;;;;;4965574;28;95179;-75
2023/08/20 01:01:27;;;;;;;18.85;8.43;;;19.30;99.90;;;;;;4966680;28;92679;-76
2023/08/20 01:03:52;;;;;;;14.27;7.80;;;19.30;99.90;;;;;;4964678;28;94196;-76
2023/08/20 01:06:55;;;;;;;14.52;8.00;;;19.30;99.90;;;;;;4965861;28;93380;-76
2023/08/20 01:09:25;;;;;;;13.98;8.00;;;19.30;99.90;;;;;;4965632;28;93689;-76
2023/08/20 01:11:57;;;;;;;18.05;8.93;;;19.20;99.90;;;;;;4965255;28;92729;-76
2023/08/20 01:14:23;;;;;;;15.77;8.43;;;19.20;99.90;;;;;;4967107;28;92142;-76
2023/08/20 01:16:49;;;;;;;14.95;8.20;;;19.20;99.90;;;;;;4965376;28;93828;-76
2023/08/20 01:19:20;;;;;;;17.38;8.15;;;19.20;99.90;;;;;;4964474;28;93072;-76
2023/08/20 01:22:27;;;;;;;17.02;8.68;;;19.10;99.90;;;;;;4964083;28;93499;-76
2023/08/20 01:25:01;;;;;;;20.08;8.30;;;19.10;99.90;;;;;;4938724;28;93004;-76
2023/08/20 01:28:03;;;;;;;18.10;8.75;;;19.00;99.90;;;;;;4963263;28;93541;-76
2023/08/20 01:30:30;;;;;;;19.48;8.05;;;19.00;99.90;;;;;;4966443;28;93870;-75
2023/08/20 01:32:58;;;;;;;11.15;8.02;;;19.00;99.90;;;;;;4955896;28;92429;-76
2023/08/20 01:35:25;;;;;;;15.63;8.30;;;19.00;99.90;;;;;;4963654;28;92914;-76
2023/08/20 01:37:50;;;;;;;16.58;7.90;;;18.90;99.90;;;;;;4964387;28;93514;-76
2023/08/20 01:40:16;;;;;;;18.40;8.13;;;18.90;99.90;;;;;;4963750;28;93888;-76
2023/08/20 01:42:42;;;;;;;12.77;7.05;;;18.90;99.90;;;;;;4964626;28;92503;-76
2023/08/20 01:45:08;;;;;;;15.57;6.78;;;18.80;99.90;;;;;;4963113;28;92652;-76
2023/08/20 01:47:34;;;;;;;13.68;6.85;;;18.80;99.90;;;;;;4964433;28;95091;-75
2023/08/20 01:49:59;;;;;;;16.13;7.28;;;18.80;99.90;;;;;;4964577;28;93399;-76
2023/08/20 01:52:25;;;;;;;12.75;6.95;;;18.80;99.90;;;;;;4966454;28;93025;-75
2023/08/20 01:54:52;;;;;;;14.32;6.72;;;18.80;99.90;;;;;;4964566;28;92544;-76
2023/08/20 01:57:17;;;;;;;17.77;7.30;;;18.80;99.90;;;;;;4963657;28;93201;-75
2023/08/20 01:59:43;;;;;;;16.45;6.78;;;18.80;99.90;;;;;;4965081;28;93320;-75
2023/08/20 02:02:08;;;;;;;14.00;7.35;;;18.70;99.90;;;;;;4966252;28;93006;-76
2023/08/20 02:04:34;;;;;;;17.92;7.88;;;18.70;99.90;;;;;;4964822;28;91748;-76
2023/08/20 02:07:00;;;;;;;14.77;7.13;;;18.70;99.90;;;;;;4963636;28;93477;-76
2023/08/20 02:09:26;;;;;;;17.65;8.02;;;18.70;99.90;;;;;;4963555;28;93456;-75
2023/08/20 02:11:52;;;;;;;14.02;6.70;;;18.70;99.90;;;;;;4964698;28;93840;-75
2023/08/20 02:14:17;;;;;;;13.95;6.97;;;18.70;99.90;;;;;;4964685;28;93048;-76
2023/08/20 02:16:44;;;;;;;11.73;5.82;;;18.70;99.90;;;;;;4964523;28;94124;-75
2023/08/20 02:19:10;;;;;;;12.55;5.82;;;18.70;99.90;;;;;;4964313;28;93464;-76
2023/08/20 02:21:36;;;;;;;15.73;6.43;;;18.70;99.90;;;;;;4946576;28;92626;-76
2023/08/20 02:24:01;;;;;;;18.70;6.88;;;18.70;99.90;;;;;;4963240;28;92750;-76
2023/08/20 02:26:27;;;;;;;18.52;6.85;;;18.70;99.90;;;;;;4962669;28;93743;-76
2023/08/20 02:28:53;;;;;;;11.02;5.95;;;18.60;99.90;;;;;;4965013;28;93863;-76
2023/08/20 02:31:18;;;;;;;13.55;5.93;;;18.60;99.90;;;;;;4964175;28;93251;-76
2023/08/20 02:33:44;;;;;;;9.38;6.07;;;18.60;99.90;;;;;;4963590;28;92965;-75
2023/08/20 02:36:09;;;;;;;15.60;5.85;;;18.60;99.90;;;;;;4944841;28;97500;-76
2023/08/20 02:38:35;;;;;;;13.52;5.97;;;18.60;99.90;;;;;;4962030;28;94292;-76
2023/08/20 02:41:04;;;;;;;14.25;6.55;;;18.60;99.90;;;;;;4958621;28;92817;-76
2023/08/20 02:43:30;;;;;;;16.20;6.53;;;18.60;99.90;;;;;;4958712;28;93027;-76
2023/08/20 02:45:56;;;;;;;14.80;5.63;;;18.50;99.90;;;;;;4958547;28;93178;-76
2023/08/20 02:48:26;;;;;;;14.20;6.30;;;18.50;99.90;;;;;;4959716;28;93213;-76
2023/08/20 02:50:53;;;;;;;20.02;7.90;;;18.50;99.90;;;;;;4958407;28;92778;-76
2023/08/20 02:53:18;;;;;;;15.75;5.85;;;18.50;99.90;;;;;;4959975;28;91798;-77
2023/08/20 02:55:44;;;;;;;15.10;5.97;;;18.40;99.90;;;;;;4957520;28;93345;-76
2023/08/20 02:58:10;;;;;;;14.38;6.35;;;18.40;99.90;;;;;;4964209;28;93320;-76
2023/08/20 03:00:36;;;;;;;14.70;6.32;;;18.40;99.90;;;;;;4962599;28;93630;-76
2023/08/20 03:03:05;;;;;;;13.73;6.18;;;18.50;99.90;;;;;;4963826;28;92757;-77
2023/08/20 03:05:31;;;;;;;16.80;6.18;;;18.50;99.90;;;;;;4962001;28;94291;-76
2023/08/20 03:07:57;;;;;;;12.20;5.93;;;18.50;99.90;;;;;;4962792;28;92745;-76
2023/08/20 03:10:23;;;;;;;16.08;6.85;;;18.50;99.90;;;;;;4962532;28;94080;-77
2023/08/20 03:12:48;;;;;;;16.73;6.65;;;18.50;99.90;;;;;;4959499;28;93154;-76
2023/08/20 03:15:14;;;;;;;11.68;5.57;;;18.50;99.90;;;;;;4963317;28;93172;-75
2023/08/20 03:17:40;;;;;;;13.40;5.70;;;18.50;99.90;;;;;;4963914;28;93750;-76
2023/08/20 03:20:06;;;;;;;15.95;7.03;;;18.60;99.90;;;;;;4962504;28;93232;-77
2023/08/20 03:22:32;;;;;;;11.82;5.97;;;18.60;99.90;;;;;;4946581;28;93026;-76
2023/08/20 03:24:58;;;;;;;13.90;6.20;;;18.60;99.90;;;;;;4962584;28;94999;-76
2023/08/20 03:27:23;;;;;;;15.30;6.70;;;18.60;99.90;;;;;;4964249;28;94944;-76
2023/08/20 03:29:49;;;;;;;13.73;6.95;;;18.60;99.90;;;;;;4944939;28;92773;-76
2023/08/20 03:32:15;;;;;;;16.45;7.25;;;18.50;99.90;;;;;;4961630;28;92507;-76
2023/08/20 03:34:41;;;;;;;10.80;5.80;;;18.50;99.90;;;;;;4943725;28;95785;-76
2023/08/20 03:37:06;;;;;;;12.60;6.53;;;18.50;99.90;;;;;;4962379;28;93227;-76
2023/08/20 03:39:32;;;;;;;11.25;5.93;;;18.60;99.90;;;;;;4963188;28;92895;-76
2023/08/20 03:41:58;;;;;;;17.88;6.90;;;18.60;99.90;;;;;;4964204;28;91965;-76
2023/08/20 03:44:24;;;;;;;14.70;6.85;;;18.60;99.90;;;;;;4964550;28;94167;-76
2023/08/20 03:46:49;;;;;;;16.70;6.50;;;18.60;99.90;;;;;;4963960;28;92586;-76
2023/08/20 03:49:15;;;;;;;14.00;6.10;;;18.60;99.90;;;;;;4963610;28;93836;-76
2023/08/20 03:51:42;;;;;;;11.50;5.30;;;18.60;99.90;;;;;;4945790;28;92682;-76
2023/08/20 03:54:08;;;;;;;9.02;5.28;;;18.60;99.90;;;;;;4961860;28;94453;-76
2023/08/20 03:56:34;;;;;;;14.93;6.32;;;18.60;99.90;;;;;;4962839;28;93260;-76
2023/08/20 03:59:01;;;;;;;14.63;6.28;;;18.60;99.90;;;;;;4963028;28;92647;-76
2023/08/20 04:01:27;;;;;;;9.95;5.47;;;18.60;99.90;;;;;;4962978;28;93020;-76
2023/08/20 04:03:52;;;;;;;14.23;6.70;;;18.60;99.90;;;;;;4965851;28;97305;-76
2023/08/20 04:06:18;;;;;;;19.40;6.25;;;18.60;99.90;;;;;;4966029;28;93260;-76
2023/08/20 04:08:44;;;;;;;11.98;6.07;;;18.60;99.90;;;;;;4967940;28;92457;-76
2023/08/20 04:11:09;;;;;;;14.10;5.25;;;18.50;99.90;;;;;;4966003;28;93075;-76
2023/08/20 04:13:35;;;;;;;12.98;5.43;;;18.50;99.90;;;;;;4964262;28;96630;-76
2023/08/20 04:16:00;;;;;;;16.20;6.40;;;18.50;99.90;;;;;;4948442;28;97182;-76
2023/08/20 04:18:26;;;;;;;12.13;5.43;;;18.50;99.90;;;;;;4956200;28;92672;-76
2023/08/20 04:20:53;;;;;;;10.90;5.50;;;18.50;99.90;;;;;;4966127;28;93015;-76
2023/08/20 04:23:19;;;;;;;12.13;5.38;;;18.50;99.90;;;;;;4951167;28;94976;-76
2023/08/20 04:25:46;;;;;;;10.65;6.10;;;18.40;99.90;;;;;;4966965;28;92808;-75
2023/08/20 04:28:14;;;;;;;12.32;6.20;;;18.40;99.90;;;;;;4973141;28;92698;-76
2023/08/20 04:30:40;;;;;;;11.85;6.22;;;18.40;99.90;;;;;;4948778;28;91799;-77
2023/08/20 04:33:06;;;;;;;11.98;6.30;;;18.30;99.90;;;;;;4967625;28;93239;-75
2023/08/20 04:35:32;;;;;;;17.20;7.25;;;18.30;99.90;;;;;;4966059;28;93135;-76
2023/08/20 04:37:57;;;;;;;15.13;6.65;;;18.30;99.90;;;;;;4949562;28;93641;-76
2023/08/20 04:40:23;;;;;;;16.90;7.40;;;18.30;99.90;;;;;;4966317;28;93017;-76
2023/08/20 04:42:49;;;;;;;13.00;6.68;;;18.30;99.90;;;;;;4965484;28;94746;-76
2023/08/20 04:45:17;;;;;;;14.48;6.22;;;18.30;99.90;;;;;;4965520;28;93328;-76
2023/08/20 04:47:43;;;;;;;12.60;6.30;;;18.30;99.90;;;;;;4967246;28;92645;-76
2023/08/20 04:50:09;;;;;;;14.60;6.25;;;18.30;99.90;;;;;;4964551;28;92453;-76
2023/08/20 04:52:35;;;;;;;13.88;6.30;;;18.30;99.90;;;;;;4964527;28;93360;-75
2023/08/20 04:55:01;;;;;;;14.77;7.00;;;18.30;99.90;;;;;;4967352;28;93456;-76
2023/08/20 04:57:27;;;;;;;18.88;6.75;;;18.30;99.90;;;;;;4966893;28;92664;-75
2023/08/20 04:59:53;;;;;;;16.52;6.53;;;18.40;99.90;;;;;;4965444;28;92585;-75
2023/08/20 05:02:18;;;;;;;14.65;7.13;;;18.40;99.90;;;;;;4945884;28;97627;-76
2023/08/20 05:04:44;;;;;;;13.13;7.88;;;18.40;99.90;;;;;;4963370;28;95781;-76
2023/08/20 05:07:10;;;;;;;13.05;6.40;;;18.40;99.90;;;;;;4965259;28;92612;-76
2023/08/20 05:09:36;;;;;;;11.63;6.55;;;18.40;99.90;;;;;;4948664;28;92275;-76
2023/08/20 05:12:02;;;;;;;13.45;5.78;;;18.50;99.90;;;;;;4966771;28;94450;-75
2023/08/20 05:14:29;;;;;;;13.75;6.15;;;18.50;99.90;;;;;;4965257;28;93512;-75
2023/08/20 05:16:54;;;;;;;18.20;6.50;;;18.50;99.90;;;;;;4965297;28;92952;-76
2023/08/20 05:19:20;;;;;;;14.48;6.13;;;18.50;99.90;;;;;;4948655;28;92036;-76
2023/08/20 05:21:46;;;;;;;17.80;7.07;;;18.60;99.90;;;;;;4947065;28;96551;-76
2023/08/20 05:24:11;;;;;;;12.18;5.82;;;18.60;99.90;;;;;;4963814;28;93421;-76
2023/08/20 05:26:37;;;;;;;15.40;6.18;;;18.60;99.90;;;;;;4965902;28;93538;-76
2023/08/20 05:29:03;;;;;;;17.48;6.78;;;18.70;99.90;;;;;;4965528;28;92944;-76
2023/08/20 05:31:29;;;;;;;12.25;6.65;;;18.70;99.90;;;;;;4947431;28;95104;-77
2023/08/20 05:33:54;;;;;;;9.63;6.35;;;18.70;99.90;;;;;;4962228;28;96351;-76
2023/08/20 05:36:20;;;;;;;9.93;6.22;;;18.70;99.90;;;;;;4946306;28;92940;-76
2023/08/20 05:38:46;;;;;;;9.15;5.90;;;18.70;99.90;;;;;;4955154;28;92538;-76
2023/08/20 05:41:11;;;;;;;12.07;6.32;;;18.80;99.90;;;;;;4963178;28;93353;-77
2023/08/20 05:43:37;;;;;;;13.48;6.28;;;18.80;99.90;;;;;;4966018;28;92012;-77
2023/08/20 05:46:03;;;;;;;14.23;6.70;;;18.80;99.90;;;;;;4947584;28;92569;-76
2023/08/20 05:48:29;;;;;;;17.80;6.43;;;18.80;99.90;;;;;;4947617;28;92794;-76
2023/08/20 05:50:55;;;;;;;11.82;6.28;;;18.90;99.90;;;;;;4965280;28;94776;-76
2023/08/20 05:53:22;;;;;;;13.68;7.00;;;19.00;99.90;;;;;;4963889;28;94334;-75
2023/08/20 05:55:48;;;;;;;27.48;8.73;;;19.00;99.90;;;;;;4965593;28;92853;-76
2023/08/20 05:58:13;;;;;;;18.38;7.10;;;19.10;99.90;;;;;;4965880;28;92688;-76
2023/08/20 06:00:39;;;;;;;16.27;6.25;;;19.10;99.90;;;;;;4947650;28;97005;-76
2023/08/20 06:03:07;;;;;;;17.65;7.32;;;19.10;99.90;;;;;;4965573;28;93141;-76
2023/08/20 06:05:35;;;;;;;11.60;6.60;;;19.20;99.90;;;;;;4971453;28;92593;-76
2023/08/20 06:08:01;;;;;;;14.60;7.53;;;19.30;99.90;;;;;;4947828;28;92028;-76
2023/08/20 06:10:26;;;;;;;13.32;6.78;;;19.30;99.90;;;;;;4965006;28;94345;-76
2023/08/20 06:12:52;;;;;;;10.63;6.80;;;19.40;99.90;;;;;;4964370;28;93783;-76
2023/08/20 06:15:18;;;;;;;14.55;6.07;;;19.50;99.90;;;;;;4962479;28;93673;-77
2023/08/20 06:17:44;;;;;;;17.08;6.85;;;19.50;99.90;;;;;;4966262;28;92659;-77
2023/08/20 06:20:11;;;;;;;11.13;6.40;;;19.60;99.90;;;;;;4943532;28;96490;-76
2023/08/20 06:22:37;;;;;;;12.13;6.15;;;19.70;99.90;;;;;;4964384;28;93426;-76
2023/08/20 06:25:04;;;;;;;12.43;6.20;;;19.70;99.90;;;;;;4963392;28;92865;-76
2023/08/20 06:27:30;;;;;;;10.98;5.75;;;19.80;99.90;;;;;;4964900;28;92791;-77
2023/08/20 06:29:55;;;;;;;13.65;5.75;;;19.90;99.90;;;;;;4965841;28;93632;-77
2023/08/20 06:32:21;;;;;;;14.20;6.65;;;19.90;99.90;;;;;;4965714;28;93637;-76
2023/08/20 06:34:47;;;;;;;14.00;5.68;;;20.00;99.90;;;;;;4964257;28;93039;-76
2023/08/20 06:37:12;;;;;;;11.95;6.18;;;20.00;99.90;;;;;;4964346;28;92367;-77
2023/08/20 06:39:38;;;;;;;16.58;6.35;;;20.10;99.90;;;;;;4965107;28;94768;-76
2023/08/20 06:42:04;;;;;;;11.88;5.80;;;20.20;99.90;;;;;;4946728;28;97662;-76
2023/08/20 06:44:30;;;;;;;13.80;5.45;;;20.20;99.90;;;;;;4965371;28;92894;-76
2023/08/20 06:46:55;;;;;;;10.90;4.80;;;20.30;99.90;;;;;;4963068;28;92714;-76
2023/08/20 06:49:21;;;;;;;14.48;5.45;;;20.30;99.40;;;;;;4964325;28;93942;-76
2023/08/20 06:51:46;;;;;;;13.65;4.80;;;20.40;99.40;;;;;;4946944;28;96652;-76
2023/08/20 06:54:14;;;;;;;10.65;4.15;;;20.50;99.30;;;;;;4964906;28;92583;-77
2023/08/20 06:56:39;;;;;;;13.68;5.32;;;20.50;99.30;;;;;;4965025;28;92015;-78
2023/08/20 06:59:05;;;;;;;14.77;5.30;;;20.60;98.80;;;;;;4963920;28;93458;-77
2023/08/20 07:01:31;;;;;;;11.32;4.57;;;20.60;98.20;;;;;;4962804;28;93718;-77
2023/08/20 07:03:56;;;;;;;16.17;4.50;;;20.70;98.40;;;;;;4963703;28;93655;-77
2023/08/20 07:06:22;;;;;;;11.80;5.25;;;20.80;98.20;;;;;;4963882;28;92508;-78
2023/08/20 07:08:48;;;;;;;9.18;4.43;;;20.90;98.50;;;;;;4964596;28;93703;-77
2023/08/20 07:11:13;;;;;;;11.48;4.97;;;21.00;98.40;;;;;;4962988;28;93143;-77
2023/08/20 07:13:39;;;;;;;12.93;5.10;;;21.10;98.30;;;;;;4963295;28;92690;-77
2023/08/20 07:16:05;;;;;;;19.10;4.80;;;21.20;97.60;;;;;;4946507;28;92855;-77
2023/08/20 07:18:30;;;;;;;16.63;5.38;;;21.30;97.40;;;;;;4963258;28;93578;-76
2023/08/20 07:20:56;;;;;;;13.10;4.53;;;21.40;97.50;;;;;;4963621;28;96264;-77
2023/08/20 07:23:22;;;;;;;13.25;4.45;;;21.40;97.90;;;;;;4963764;28;92572;-76
2023/08/20 07:25:51;;;;;;;19.50;5.13;;;21.50;98.10;;;;;;4962573;28;93015;-78
2023/08/20 07:28:26;;;;;;;14.95;4.60;;;21.70;98.00;;;;;;4964224;28;94739;-76
2023/08/20 07:30:52;;;;;;;12.07;4.40;;;21.80;97.40;;;;;;4962920;28;94013;-76
2023/08/20 07:33:18;;;;;;;13.05;4.70;;;21.90;96.50;;;;;;4944780;28;98608;-79
2023/08/20 07:35:43;;;;;;;18.48;4.93;;;22.00;96.20;;;;;;4963983;28;92972;-78
2023/08/20 07:38:09;;;;;;;11.73;4.75;;;22.10;95.70;;;;;;4965464;28;93933;-76
2023/08/20 07:40:34;;;;;;;15.65;5.47;;;22.10;96.10;;;;;;4966448;28;93413;-77
2023/08/20 07:43:00;;;;;;;14.35;4.60;;;22.20;95.80;;;;;;4967722;28;92489;-77
2023/08/20 07:45:26;;;;;;;13.60;4.68;;;22.30;95.50;;;;;;4966364;28;91889;-77
2023/08/20 07:47:51;;;;;;;12.43;5.30;;;22.40;95.80;;;;;;4947979;28;96769;-76
2023/08/20 07:50:17;;;;;;;14.30;4.63;;;22.50;95.80;;;;;;4965874;28;92802;-76
2023/08/20 07:52:43;;;;;;;12.82;4.50;;;22.60;95.80;;;;;;4963856;28;94728;-76
2023/08/20 07:55:08;;;;;;;14.50;4.95;;;22.70;96.00;;;;;;4968489;28;92513;-77
2023/08/20 07:57:34;;;;;;;13.55;5.22;;;22.90;95.10;;;;;;4947577;28;96563;-77
2023/08/20 08:00:01;;;;;;;13.70;4.50;;;23.00;94.10;;;;;;4969303;28;93363;-76
2023/08/20 08:02:27;;;;;;;14.63;5.07;;;23.10;94.40;;;;;;4947702;28;92909;-77
2023/08/20 08:04:52;;;;;;;15.45;5.15;;;23.20;95.10;;;;;;4950786;28;92878;-76
2023/08/20 08:07:18;;;;;;;11.80;4.35;;;23.30;93.80;;;;;;4969263;28;93312;-77
2023/08/20 08:09:45;;;;;;;12.45;4.22;;;23.30;94.70;;;;;;4967584;28;93484;-77
2023/08/20 08:12:11;;;;;;;12.07;4.72;;;23.40;93.60;;;;;;4965241;28;92228;-76
2023/08/20 08:14:36;;;;;;;14.05;5.03;;;23.50;93.50;;;;;;4947681;28;92782;-77
2023/08/20 08:17:02;;;;;;;11.70;5.03;;;23.70;93.10;;;;;;4947906;28;97256;-77
2023/08/20 08:19:28;;;;;;;11.77;5.07;;;23.80;92.80;;;;;;4965374;28;96160;-77
2023/08/20 08:21:54;;;;;;;18.23;5.50;;;23.90;93.40;;;;;;4967817;28;92927;-77
2023/08/20 08:24:19;;;;;;;9.02;4.60;;;24.00;93.20;;;;;;4950097;28;92771;-79
2023/08/20 08:26:47;;;;;;;17.70;6.30;;;24.10;93.80;;;;;;4949850;28;96484;-79
2023/08/20 08:29:13;;;;;;;13.45;5.30;;;24.20;92.30;;;;;;4967233;28;93742;-78
2023/08/20 08:31:39;;;;;;;16.40;6.30;;;24.40;92.30;;;;;;4968337;28;92876;-79
2023/08/20 08:34:04;;;;;;;15.70;5.57;;;24.50;93.40;;;;;;4967995;28;91874;-79
2023/08/20 08:36:30;;;;;;;13.30;6.00;;;24.60;91.00;;;;;;4965277;28;96498;-78
2023/08/20 08:38:56;;;;;;;12.57;5.25;;;24.70;90.70;;;;;;4968909;28;93209;-79
2023/08/20 08:41:25;;;;;;;14.80;5.93;;;24.70;91.00;;;;;;4948506;28;93613;-79
2023/08/20 08:43:51;;;;;;;14.93;6.10;;;24.90;90.50;;;;;;4966420;28;93012;-78
2023/08/20 08:46:17;;;;;;;14.38;5.15;;;25.00;90.50;;;;;;4949490;28;96145;-79
2023/08/20 08:48:45;;;;;;;13.95;5.22;;;25.10;90.70;;;;;;4964289;28;93016;-79
2023/08/20 08:51:12;;;;;;;14.10;5.85;;;25.30;91.10;;;;;;4965878;28;92726;-79
2023/08/20 08:53:38;;;;;;;13.38;5.53;;;25.40;90.40;;;;;;4966389;28;92175;-79
2023/08/20 08:56:05;;;;;;;16.80;5.07;;;25.60;90.30;;;;;;4965213;28;93507;-79
2023/08/20 08:58:32;;;;;;;14.98;4.90;;;25.70;88.00;;;;;;4966654;28;95319;-79
2023/08/20 09:00:58;;;;;;;11.95;4.65;;;25.80;87.60;;;;;;4965667;28;97414;-79
2023/08/20 09:03:24;;;;;;;17.40;4.32;;;25.90;89.70;;;;;;4966958;28;92590;-79
2023/08/20 09:06:00;;;;;;;15.05;4.97;;;26.00;88.20;;;;;;4968507;28;95000;-79
2023/08/20 09:08:27;;;;;;;12.70;5.75;;;26.10;87.20;;;;;;4962502;28;93387;-80
2023/08/20 09:10:55;;;;;;;15.95;5.68;;;26.30;86.00;;;;;;4968489;28;92493;-81
2023/08/20 09:13:36;;;;;;;14.88;5.75;;;26.40;85.50;;;;;;4949043;28;92720;-82
2023/08/20 09:16:12;;;;;;;13.52;5.38;;;26.50;85.40;;;;;;4967486;28;93469;-84
2023/08/20 09:18:43;;;;;;;12.95;4.60;;;26.70;85.70;;;;;;4947316;28;95257;-82
2023/08/20 09:21:11;;;;;;;13.68;4.68;;;26.80;84.60;;;;;;4948089;28;92547;-83
2023/08/20 09:23:37;;;;;;;13.05;5.07;;;26.90;82.70;;;;;;4948108;28;92059;-82
2023/08/20 09:26:05;;;;;;;9.27;3.78;;;26.90;83.10;;;;;;4946649;28;96554;-82
2023/08/20 09:28:45;;;;;;;10.43;3.67;;;27.00;84.50;;;;;;4971004;28;95314;-82
2023/08/20 09:31:12;;;;;;;11.50;3.60;;;27.00;83.60;;;;;;4966676;28;93677;-81
2023/08/20 09:33:52;;;;;;;8.32;3.55;;;27.20;82.40;;;;;;4965383;28;92919;-82
2023/08/20 09:36:18;;;;;;;7.75;2.47;;;27.20;81.50;;;;;;4947759;28;96809;-82
2023/08/20 09:38:44;;;;;;;12.32;3.50;;;27.40;85.40;;;;;;4967517;28;93295;-81
2023/08/20 09:41:12;;;;;;;7.70;3.00;;;27.60;79.80;;;;;;4966760;28;92565;-80
2023/08/20 09:43:39;;;;;;;9.48;3.20;;;27.70;83.20;;;;;;4968559;28;92909;-82
2023/08/20 09:46:11;;;;;;;7.85;2.13;;;27.90;83.00;;;;;;4971718;28;96423;-81
2023/08/20 09:48:41;;;;;;;11.23;3.50;;;28.20;86.20;;;;;;4963682;28;92203;-80
2023/08/20 09:51:11;;;;;;;9.48;3.33;;;28.50;77.80;;;;;;4964962;28;92733;-80
2023/08/20 09:54:02;;;;;;;11.32;3.00;;;28.60;80.30;;;;;;4964121;28;93063;-80
2023/08/20 09:56:29;;;;;;;7.88;2.67;;;28.70;81.30;;;;;;4963358;28;93711;-80
2023/08/20 09:58:57;;;;;;;8.32;3.03;;;28.80;77.10;;;;;;4963016;28;93979;-81
2023/08/20 10:01:24;;;;;;;8.45;3.17;;;28.80;77.90;;;;;;4968597;28;92966;-81
2023/08/20 10:03:50;;;;;;;5.25;2.05;;;29.00;77.10;;;;;;4964122;28;92558;-81
2023/08/20 10:06:17;;;;;;;8.02;2.38;;;29.20;82.00;;;;;;4961158;28;92838;-81
2023/08/20 10:08:43;;;;;;;13.45;3.63;;;29.50;81.10;;;;;;4964527;28;94292;-81
2023/08/20 10:11:09;;;;;;;13.95;4.20;;;29.70;73.50;;;;;;4945087;28;92695;-81
2023/08/20 10:13:35;;;;;;;10.13;2.80;;;29.70;72.60;;;;;;4963117;28;91835;-81
2023/08/20 10:16:01;;;;;;;8.02;3.08;;;29.70;73.50;;;;;;4962198;28;93684;-81
2023/08/20 10:18:26;;;;;;;16.65;4.65;;;29.60;72.70;;;;;;4961407;28;96310;-81
2023/08/20 10:20:59;;;;;;;12.35;3.22;;;29.70;76.50;;;;;;5011356;27;1424902;-81
2023/08/20 10:23:25;;;;;;;10.93;3.15;;;29.80;72.50;;;;;;5007906;28;86117;-81
2023/08/20 10:25:52;;;;;;;9.93;2.78;;;29.90;71.40;;;;;;5005439;28;86621;-81
2023/08/20 10:28:24;;;;;;;6.50;2.25;;;30.00;72.40;;;;;;5023099;28;86896;-81
2023/08/20 10:31:11;;;;;;;7.72;2.50;;;30.20;77.10;;;;;;5023944;28;86723;-81
2023/08/20 10:33:39;;;;;;;7.55;2.25;;;30.40;76.00;;;;;;5024037;28;85828;-80
2023/08/20 10:36:17;;;;;;;9.73;2.55;;;30.70;73.00;;;;;;5025093;28;86178;-79
2023/08/20 10:38:45;;;;;;;14.48;3.88;;;30.90;67.00;;;;;;5032128;27;95397;-77
2023/08/20 10:41:11;;;;;;;7.45;2.00;;;31.00;71.20;;;;;;5034129;28;85919;-77
2023/08/20 10:43:39;;;;;;;6.65;2.30;;;31.20;72.70;;;;;;5033660;28;86313;-78
2023/08/20 10:46:09;;;;;;;9.95;2.90;;;31.50;72.10;;;;;;5033824;28;86237;-77
2023/08/20 10:48:38;;;;;;;7.20;2.45;;;31.80;75.30;;;;;;5032895;28;86680;-77
2023/08/20 10:51:09;;;;;;;7.22;1.83;;;32.00;69.00;;;;;;5034541;28;87185;-82
2023/08/20 10:53:34;;;;;;;6.05;2.00;;;32.30;72.20;;;;;;5014486;28;88201;-78
2023/08/20 10:56:13;;;;;;;5.15;1.90;;;32.50;71.60;;;;;;5033992;28;86463;-79
2023/08/20 10:58:43;;;;;;;7.90;1.90;;;32.80;68.60;;;;;;5033652;28;87805;-79
2023/08/20 11:01:21;;;;;;;8.75;1.90;;;32.90;62.40;;;;;;5033317;28;86435;-78
2023/08/20 11:03:50;;;;;;;5.90;1.50;;;32.90;61.10;;;;;;5031034;27;86492;-79
2023/08/20 11:06:17;;;;;;;5.30;1.30;;;32.90;59.70;;;;;;5032173;28;86465;-79
2023/08/20 11:08:43;;;;;;;5.43;1.50;;;33.00;66.40;;;;;;5033730;28;87474;-81
2023/08/20 11:11:10;;;;;;;5.47;1.63;;;33.10;63.40;;;;;;5014692;28;88887;-79
2023/08/20 11:13:35;;;;;;;3.78;1.45;;;33.30;63.90;;;;;;5014200;28;85918;-79
2023/08/20 11:16:05;;;;;;;5.28;1.60;;;33.40;65.60;;;;;;5032215;28;85874;-80
2023/08/20 11:18:34;;;;;;;6.25;2.10;;;33.70;66.00;;;;;;5030373;27;89533;-79
2023/08/20 11:21:00;;;;;;;4.05;1.60;;;33.90;62.00;;;;;;5033675;28;87414;-79
2023/08/20 11:23:27;;;;;;;3.30;1.50;;;34.00;59.90;;;;;;5014378;28;86441;-79
2023/08/20 11:25:53;;;;;;;5.00;1.77;;;34.00;58.70;;;;;;5014211;28;87870;-79
2023/08/20 11:28:19;;;;;;;8.13;1.70;;;34.10;59.20;;;;;;5033195;28;86840;-80
2023/08/20 11:30:46;;;;;;;8.38;1.92;;;34.20;56.40;;;;;;5028818;28;86893;-80
2023/08/20 11:33:12;;;;;;;4.68;1.48;;;34.20;60.70;;;;;;5019198;28;86011;-79
2023/08/20 11:35:38;;;;;;;5.57;1.58;;;34.40;61.10;;;;;;5016152;28;86160;-80
2023/08/20 11:38:04;;;;;;;3.80;1.30;;;34.60;57.60;;;;;;5017007;28;90282;-80
2023/08/20 11:40:30;;;;;;;3.90;1.42;;;34.70;62.90;;;;;;4999867;28;87714;-81
2023/08/20 11:42:56;;;;;;;5.53;1.40;;;34.90;60.20;;;;;;5014675;28;86254;-80
2023/08/20 11:45:21;;;;;;;1.67;1.08;;;35.10;62.50;;;;;;5014059;28;86313;-80
2023/08/20 11:47:47;;;;;;;5.30;1.50;;;35.40;63.90;;;;;;5018679;28;86676;-79
2023/08/20 11:50:13;;;;;;;4.00;1.00;;;35.60;55.80;;;;;;5018250;28;91517;-79
2023/08/20 11:52:39;;;;;;;4.07;1.30;;;35.50;53.90;;;;;;5018990;28;86348;-79
2023/08/20 11:55:06;;;;;;;8.38;1.25;;;35.20;54.50;;;;;;5017817;28;86148;-80
2023/08/20 11:57:32;;;;;;;4.63;1.08;;;35.20;56.60;;;;;;5014579;28;87282;-80
2023/08/20 12:00:09;;;;;;;4.43;1.10;;;35.30;54.50;;;;;;5014145;28;87351;-80
2023/08/20 12:02:35;;;;;;;2.45;0.90;;;35.40;57.10;;;;;;5013373;28;88463;-79
2023/08/20 12:05:00;;;;;;;2.20;0.90;;;35.70;62.00;;;;;;4998326;28;86129;-78
2023/08/20 12:07:27;;;;;;;4.68;1.13;;;36.10;67.00;;;;;;5017943;28;87803;-79
2023/08/20 12:09:53;;;;;;;5.00;1.20;;;36.40;50.10;;;;;;4997359;28;90382;-79
2023/08/20 12:12:20;;;;;;;4.13;1.23;;;36.40;47.70;;;;;;4998128;28;86327;-80
2023/08/20 12:14:46;;;;;;;5.63;1.15;;;36.30;56.10;;;;;;5016047;28;86355;-79
2023/08/20 12:17:12;;;;;;;4.80;1.20;;;36.50;47.80;;;;;;5007820;28;90101;-79
2023/08/20 12:19:37;;;;;;;3.95;1.10;;;36.50;53.90;;;;;;4998763;28;90339;-79
2023/08/20 12:22:03;;;;;;;4.20;0.93;;;36.70;54.00;;;;;;5014045;28;86341;-78
2023/08/20 12:24:29;;;;;;;3.28;1.05;;;36.80;52.80;;;;;;4998632;28;86665;-79
2023/08/20 12:26:55;;;;;;;3.65;0.93;;;37.00;53.10;;;;;;5016953;28;87259;-79
2023/08/20 12:29:21;;;;;;;3.72;0.80;;;37.30;52.80;;;;;;4999464;28;88951;-78
2023/08/20 12:31:46;;;;;;;3.80;1.00;;;37.40;51.10;;;;;;5018306;28;86661;-79
2023/08/20 12:34:12;;;;;;;9.27;1.10;;;37.40;46.50;;;;;;4999598;28;87241;-78
2023/08/20 12:36:38;;;;;;;3.63;1.00;;;37.20;43.90;;;;;;5015767;28;87239;-78